Time;durP1;ratioP1;P1;durP2;ratioP2;P2;SDS_P1;SDS_P2;PMS_P1;PMS_P2;Temp;Humidity;BMP_temperature;BMP_pressure;BME280_temperature;BME280_humidity;BME280_pressure;Samples;Min_cycle;Max_cycle;Signal;HPM_P1;HPM_P2
2023/06/25 00:01:20;;;;;;;3.70;3.40;;;17.20;1.00;;;;;;5155473;23;20352;-69
2023/06/25 00:03:52;;;;;;;3.67;2.90;;;17.20;1.00;;;;;;5081713;29;20122;-68
2023/06/25 00:06:25;;;;;;;3.90;3.15;;;17.20;1.00;;;;;;5060432;28;20072;-68
2023/06/25 00:08:59;;;;;;;4.53;3.47;;;17.20;1.00;;;;;;5150642;28;20044;-68
2023/06/25 00:11:33;;;;;;;3.83;2.90;;;17.20;1.00;;;;;;5144461;28;20243;-66
2023/06/25 00:14:07;;;;;;;4.72;3.08;;;17.20;1.00;;;;;;5160297;28;20030;-68
2023/06/25 00:16:39;;;;;;;4.40;3.70;;;17.20;1.00;;;;;;5141832;28;20052;-67
2023/06/25 00:19:17;;;;;;;3.92;3.15;;;17.20;1.00;;;;;;5159968;28;20495;-68
2023/06/25 00:21:48;;;;;;;4.53;3.60;;;17.20;1.00;;;;;;5105942;28;20341;-67
2023/06/25 00:24:25;;;;;;;5.28;3.22;;;17.10;1.00;;;;;;5077473;29;20044;-69
2023/06/25 00:27:00;;;;;;;4.25;3.60;;;17.10;1.00;;;;;;5060944;28;20040;-68
2023/06/25 00:29:33;;;;;;;;;;;17.10;1.00;;;;;;5093357;29;20532;-67
2023/06/25 00:32:07;;;;;;;3.85;3.33;;;17.00;1.00;;;;;;5079720;28;19903;-68
2023/06/25 00:34:41;;;;;;;;;;;17.00;1.00;;;;;;5078090;28;20377;-68
2023/06/25 00:37:19;;;;;;;6.53;2.58;;;17.00;1.00;;;;;;5077042;29;19918;-67
2023/06/25 00:39:55;;;;;;;5.00;3.28;;;17.00;1.00;;;;;;5077584;29;20340;-68
2023/06/25 00:42:33;;;;;;;7.65;3.22;;;17.10;1.00;;;;;;5078215;28;20036;-67
2023/06/25 00:45:05;;;;;;;4.45;3.10;;;17.10;1.00;;;;;;5075099;29;20040;-69
2023/06/25 00:47:41;;;;;;;4.20;3.80;;;17.00;1.00;;;;;;5077766;29;20032;-69
2023/06/25 00:50:15;;;;;;;3.40;2.92;;;17.00;1.00;;;;;;5076620;29;20028;-70
2023/06/25 00:52:50;;;;;;;3.38;3.00;;;17.00;1.00;;;;;;5063490;29;20035;-70
2023/06/25 00:55:21;;;;;;;6.00;3.45;;;17.10;1.00;;;;;;5078039;28;20034;-69
2023/06/25 00:57:55;;;;;;;5.18;3.10;;;17.20;1.00;;;;;;5060347;29;20040;-69
2023/06/25 01:00:33;;;;;;;4.00;3.30;;;17.20;1.00;;;;;;5058550;29;20051;-68
2023/06/25 01:03:26;;;;;;;3.80;2.95;;;17.20;1.00;;;;;;5190799;23;20046;-85
2023/06/25 01:06:11;;;;;;;5.43;3.28;;;17.30;1.00;;;;;;5134534;28;20034;-85
2023/06/25 01:08:53;;;;;;;3.58;2.88;;;17.30;1.00;;;;;;5127376;28;20044;-85
2023/06/25 01:11:28;;;;;;;3.85;2.90;;;17.30;1.00;;;;;;5127624;28;20030;-86
2023/06/25 01:14:03;;;;;;;5.03;3.30;;;17.20;1.00;;;;;;5132078;28;20035;-86
2023/06/25 01:16:37;;;;;;;3.78;3.40;;;17.20;1.00;;;;;;5139466;28;20042;-86
2023/06/25 01:19:19;;;;;;;3.72;3.15;;;17.20;1.00;;;;;;5136196;28;20039;-86
2023/06/25 01:21:54;;;;;;;3.58;3.00;;;17.20;1.00;;;;;;5129111;28;20026;-86
2023/06/25 01:24:26;;;;;;;5.40;3.35;;;17.20;1.00;;;;;;5128658;28;20315;-86
2023/06/25 01:27:04;;;;;;;3.42;2.92;;;17.20;1.00;;;;;;5128546;28;20034;-86
2023/06/25 01:29:38;;;;;;;5.32;3.45;;;17.20;1.00;;;;;;5128963;28;20049;-86
2023/06/25 01:32:11;;;;;;;4.95;3.53;;;17.20;1.00;;;;;;5143990;28;20316;-86
2023/06/25 01:34:45;;;;;;;4.63;3.30;;;17.20;1.00;;;;;;5127584;28;20228;-86
2023/06/25 01:37:17;;;;;;;2.97;2.67;;;17.20;1.00;;;;;;5126798;28;20035;-85
2023/06/25 01:39:52;;;;;;;3.03;2.72;;;17.20;1.00;;;;;;5126874;28;20320;-86
2023/06/25 01:42:25;;;;;;;3.80;3.25;;;17.10;1.00;;;;;;5127229;28;20035;-86
2023/06/25 01:44:57;;;;;;;4.03;3.15;;;17.10;1.00;;;;;;5131389;28;20034;-86
2023/06/25 01:47:31;;;;;;;3.45;3.10;;;17.10;1.00;;;;;;5110457;28;20035;-87
2023/06/25 01:50:03;;;;;;;;;;;17.00;1.00;;;;;;5112006;28;20350;-86
2023/06/25 01:56:08;;;;;;;4.45;3.60;;;17.00;1.00;;;;;;5163840;28;20026;-87
2023/06/25 01:58:40;;;;;;;;;;;16.90;1.00;;;;;;5112597;28;20325;-87
2023/06/25 02:01:17;;;;;;;4.88;3.30;;;16.90;1.00;;;;;;5126050;28;19909;-87
2023/06/25 02:03:53;;;;;;;3.35;3.05;;;16.90;1.00;;;;;;5126871;28;20348;-86
2023/06/25 02:06:25;;;;;;;3.75;3.45;;;16.80;1.00;;;;;;5129205;28;20046;-86
2023/06/25 02:09:02;;;;;;;5.68;3.47;;;16.80;1.00;;;;;;5110972;28;20034;-87
2023/06/25 02:11:35;;;;;;;5.65;3.30;;;16.80;1.00;;;;;;5143888;28;20045;-85
2023/06/25 02:14:09;;;;;;;5.50;3.30;;;16.80;1.00;;;;;;5142894;28;20035;-85
2023/06/25 02:16:41;;;;;;;4.73;3.07;;;16.80;1.00;;;;;;5142364;28;20056;-86
2023/06/25 02:19:12;;;;;;;4.20;3.47;;;16.80;1.00;;;;;;5143069;28;20031;-86
2023/06/25 02:21:43;;;;;;;5.63;3.83;;;16.70;1.00;;;;;;5142620;28;20026;-86
2023/06/25 02:24:19;;;;;;;4.25;3.22;;;16.80;1.00;;;;;;5143588;28;20041;-85
2023/06/25 02:26:51;;;;;;;5.25;3.50;;;16.80;1.00;;;;;;5111071;28;20043;-85
2023/06/25 02:29:23;;;;;;;5.68;3.78;;;16.90;1.00;;;;;;5142320;28;20053;-85
2023/06/25 02:31:54;;;;;;;5.43;3.75;;;16.90;1.00;;;;;;5110861;28;20035;-86
2023/06/25 02:37:57;;;;;;;4.97;3.60;;;16.90;1.00;;;;;;5159595;28;20037;-86
2023/06/25 02:40:31;;;;;;;5.13;3.70;;;17.00;1.00;;;;;;5142561;28;20036;-86
2023/06/25 02:43:08;;;;;;;3.40;3.03;;;17.00;1.00;;;;;;5143191;28;20037;-85
2023/06/25 02:49:11;;;;;;;6.78;3.83;;;16.90;1.00;;;;;;5158542;28;20225;-87
2023/06/25 02:51:43;;;;;;;5.00;3.38;;;16.90;1.00;;;;;;5110480;28;20045;-87
2023/06/25 02:54:32;;;;;;;5.28;3.70;;;16.80;1.00;;;;;;5164606;28;20342;-84
2023/06/25 02:57:04;;;;;;;4.63;3.47;;;16.90;1.00;;;;;;5141754;28;20340;-85
2023/06/25 02:59:36;;;;;;;5.18;3.63;;;16.80;1.00;;;;;;5140634;28;20041;-85
2023/06/25 03:02:07;;;;;;;5.05;3.25;;;16.80;1.00;;;;;;5140283;28;20035;-85
2023/06/25 03:08:06;;;;;;;4.43;3.65;;;16.70;1.00;;;;;;5160752;28;20066;-87
2023/06/25 03:10:40;;;;;;;4.63;3.63;;;16.80;1.00;;;;;;5143689;28;20037;-85
2023/06/25 03:13:12;;;;;;;4.00;3.50;;;16.70;1.00;;;;;;5143944;28;20030;-86
2023/06/25 03:19:13;;;;;;;4.45;3.20;;;16.70;1.00;;;;;;5177184;28;20034;-85
2023/06/25 03:21:45;;;;;;;4.18;3.63;;;16.80;1.00;;;;;;5164587;28;20211;-87
2023/06/25 03:27:44;;;;;;;5.93;4.38;;;16.80;1.00;;;;;;5180397;28;20032;-87
2023/06/25 03:30:18;;;;;;;4.85;3.50;;;16.90;1.00;;;;;;5148606;28;20030;-86
2023/06/25 03:32:49;;;;;;;5.13;3.55;;;17.00;1.00;;;;;;5148471;28;20038;-84
2023/06/25 03:38:51;;;;;;;3.92;3.38;;;17.20;1.00;;;;;;5180380;28;20030;-85
2023/06/25 03:41:26;;;;;;;4.15;3.70;;;17.30;1.00;;;;;;5147582;28;20027;-85
2023/06/25 03:43:59;;;;;;;4.40;3.60;;;17.40;1.00;;;;;;5164091;28;20026;-85
2023/06/25 03:46:30;;;;;;;4.40;3.50;;;17.50;1.00;;;;;;5164992;28;20030;-85
2023/06/25 03:49:02;;;;;;;4.15;3.72;;;17.60;1.00;;;;;;5149643;28;20038;-85
2023/06/25 03:51:36;;;;;;;4.60;3.45;;;17.70;1.00;;;;;;5137918;28;20038;-85
2023/06/25 03:54:16;;;;;;;6.63;4.18;;;17.70;99.90;;;;;;5159968;28;20048;-85
2023/06/25 03:56:53;;;;;;;4.47;3.22;;;17.80;99.90;;;;;;5160804;28;20048;-85
2023/06/25 03:59:26;;;;;;;4.53;3.15;;;17.90;99.90;;;;;;5165936;28;20033;-87
2023/06/25 04:02:00;;;;;;;5.80;3.55;;;17.90;99.90;;;;;;5165348;28;20048;-85
2023/06/25 04:04:34;;;;;;;4.68;4.00;;;18.00;99.90;;;;;;5137886;28;20046;-85
2023/06/25 04:07:06;;;;;;;;;;;18.00;99.90;;;;;;5164729;28;20089;-85
2023/06/25 04:09:37;;;;;;;5.68;3.78;;;18.10;99.90;;;;;;5163920;28;19901;-85
2023/06/25 04:12:13;;;;;;;4.57;3.28;;;18.20;99.90;;;;;;5163814;28;20040;-85
2023/06/25 04:14:47;;;;;;;3.50;2.88;;;18.20;99.90;;;;;;5163587;28;20031;-84
2023/06/25 04:17:22;;;;;;;4.43;3.50;;;18.20;99.90;;;;;;5147177;28;20034;-85
2023/06/25 04:19:55;;;;;;;4.57;4.07;;;18.20;99.90;;;;;;5147953;28;20034;-86
2023/06/25 04:22:26;;;;;;;5.10;3.17;;;18.00;99.90;;;;;;5147168;28;20030;-86
2023/06/25 04:28:26;;;;;;;4.55;3.60;;;17.90;99.90;;;;;;5179844;28;20216;-85
2023/06/25 04:31:00;;;;;;;5.03;3.88;;;17.90;99.90;;;;;;5152674;28;20034;-85
2023/06/25 04:33:41;;;;;;;6.18;5.05;;;17.90;99.90;;;;;;5137778;28;20038;-85
2023/06/25 04:36:14;;;;;;;5.35;3.95;;;17.90;99.90;;;;;;5147263;28;20030;-87
2023/06/25 04:38:46;;;;;;;3.92;3.17;;;17.90;99.90;;;;;;5163478;28;20036;-87
2023/06/25 04:41:20;;;;;;;4.93;3.72;;;18.00;99.90;;;;;;5147562;28;20033;-86
2023/06/25 04:43:51;;;;;;;4.15;3.30;;;18.00;99.90;;;;;;5163236;28;20356;-85
2023/06/25 04:46:26;;;;;;;5.03;4.25;;;18.00;20.40;;;;;;5162906;28;20031;-86
2023/06/25 04:49:01;;;;;;;4.68;4.15;;;18.10;1.00;;;;;;5147871;28;20038;-85
2023/06/25 04:51:32;;;;;;;4.97;3.83;;;18.20;1.00;;;;;;5163130;28;20030;-86
2023/06/25 04:54:03;;;;;;;6.18;3.05;;;18.30;1.00;;;;;;5146993;28;20033;-85
2023/06/25 04:56:40;;;;;;;4.50;3.65;;;18.30;1.00;;;;;;5162685;28;20030;-84
2023/06/25 04:59:15;;;;;;;5.53;3.95;;;18.30;1.00;;;;;;5146270;28;20034;-85
2023/06/25 05:01:49;;;;;;;5.05;3.92;;;18.30;1.00;;;;;;5146411;28;20030;-86
2023/06/25 05:04:21;;;;;;;4.90;4.13;;;18.30;1.00;;;;;;5136258;28;20045;-85
2023/06/25 05:06:54;;;;;;;4.30;3.78;;;18.40;1.00;;;;;;5146330;28;20041;-86
2023/06/25 05:09:28;;;;;;;5.10;3.88;;;18.60;1.00;;;;;;5146467;28;20026;-84
2023/06/25 05:12:00;;;;;;;5.60;4.13;;;18.70;1.00;;;;;;5146348;28;20032;-85
2023/06/25 05:14:35;;;;;;;4.63;3.67;;;18.70;1.00;;;;;;5146302;28;20042;-84
2023/06/25 05:17:06;;;;;;;6.60;3.63;;;18.70;1.00;;;;;;5130877;28;20350;-84
2023/06/25 05:19:38;;;;;;;4.00;3.13;;;18.70;1.00;;;;;;5146756;28;20034;-84
2023/06/25 05:22:10;;;;;;;4.47;4.00;;;18.70;1.00;;;;;;5161994;28;20033;-85
2023/06/25 05:24:47;;;;;;;8.10;3.65;;;18.80;1.00;;;;;;5162070;28;20030;-85
2023/06/25 05:27:19;;;;;;;5.70;3.28;;;18.90;1.00;;;;;;5146472;28;20030;-85
2023/06/25 05:29:52;;;;;;;4.18;3.72;;;19.00;1.00;;;;;;5145511;28;20044;-85
2023/06/25 05:32:24;;;;;;;5.50;3.65;;;19.20;99.90;;;;;;5146139;28;20332;-86
2023/06/25 05:34:56;;;;;;;4.40;3.38;;;19.20;99.90;;;;;;5145972;28;20048;-85
2023/06/25 05:37:32;;;;;;;4.10;3.45;;;19.20;99.90;;;;;;5145764;28;20034;-85
2023/06/25 05:40:06;;;;;;;4.72;3.53;;;19.20;99.90;;;;;;5163223;28;20044;-86
2023/06/25 05:42:40;;;;;;;5.40;3.72;;;19.30;99.90;;;;;;5161174;28;20343;-85
2023/06/25 05:45:11;;;;;;;5.15;3.53;;;19.20;99.90;;;;;;5162125;28;20026;-87
2023/06/25 05:47:43;;;;;;;4.30;3.40;;;19.20;99.90;;;;;;5145360;28;20026;-85
2023/06/25 05:50:15;;;;;;;4.90;3.50;;;19.00;99.90;;;;;;5162354;28;20030;-87
2023/06/25 05:52:46;;;;;;;5.68;3.83;;;19.20;99.90;;;;;;5162203;28;20034;-87
2023/06/25 05:55:18;;;;;;;4.07;3.13;;;19.30;99.90;;;;;;5146770;28;20049;-87
2023/06/25 05:57:49;;;;;;;4.22;3.47;;;19.50;99.90;;;;;;5147047;28;20034;-87
2023/06/25 06:00:23;;;;;;;4.07;3.28;;;19.60;99.90;;;;;;5181034;28;20036;-87
2023/06/25 06:02:57;;;;;;;4.90;3.30;;;19.80;99.90;;;;;;5162772;28;20038;-86
2023/06/25 06:05:31;;;;;;;5.10;3.50;;;20.10;97.60;;;;;;5151857;28;20034;-87
2023/06/25 06:08:06;;;;;;;4.00;3.30;;;20.40;1.00;;;;;;5162367;28;20041;-87
2023/06/25 06:10:43;;;;;;;4.20;3.40;;;20.40;1.00;;;;;;5161709;28;20040;-87
2023/06/25 06:13:20;;;;;;;5.18;3.42;;;20.30;1.00;;;;;;5162869;28;20044;-86
2023/06/25 06:15:52;;;;;;;3.70;3.05;;;20.40;1.00;;;;;;5145144;28;20038;-85
2023/06/25 06:18:23;;;;;;;4.05;3.50;;;20.40;1.00;;;;;;5145449;28;20142;-85
2023/06/25 06:20:58;;;;;;;3.95;3.30;;;20.40;1.00;;;;;;5144812;28;20037;-85
2023/06/25 06:23:29;;;;;;;3.75;3.20;;;20.40;1.00;;;;;;5161286;28;20220;-86
2023/06/25 06:26:01;;;;;;;4.60;3.63;;;20.50;1.00;;;;;;5145144;28;20040;-88
2023/06/25 06:28:35;;;;;;;4.55;3.30;;;20.50;1.00;;;;;;5163109;28;20030;-86
2023/06/25 06:31:07;;;;;;;7.18;3.83;;;20.60;1.00;;;;;;5165733;28;20038;-86
2023/06/25 06:33:40;;;;;;;4.20;3.30;;;20.60;1.00;;;;;;5153626;28;20029;-86
2023/06/25 06:36:16;;;;;;;5.30;3.90;;;20.60;1.00;;;;;;5156991;28;20026;-86
2023/06/25 06:38:50;;;;;;;5.05;3.83;;;20.70;1.00;;;;;;5158654;28;20042;-86
2023/06/25 06:41:26;;;;;;;6.57;3.60;;;20.90;1.00;;;;;;5154144;28;20053;-86
2023/06/25 06:44:30;;;;;;;4.35;3.33;;;21.10;1.00;;;;;;5152861;28;20034;-86
2023/06/25 06:47:05;;;;;;;4.45;3.50;;;21.20;1.00;;;;;;5137333;28;20048;-88
2023/06/25 06:49:42;;;;;;;5.30;3.63;;;21.40;1.00;;;;;;5149650;28;20034;-87
2023/06/25 06:52:17;;;;;;;3.70;3.08;;;21.30;99.90;;;;;;5148972;28;20034;-86
2023/06/25 06:54:55;;;;;;;4.75;3.35;;;21.20;1.00;;;;;;5149830;28;20034;-86
2023/06/25 06:57:48;;;;;;;4.25;3.75;;;21.20;99.90;;;;;;5168274;28;20193;-87
2023/06/25 07:00:21;;;;;;;4.63;3.33;;;21.10;99.90;;;;;;5165850;28;20324;-86
2023/06/25 07:02:56;;;;;;;3.50;3.00;;;21.20;99.90;;;;;;5165246;28;20034;-87
2023/06/25 07:05:31;;;;;;;4.15;3.47;;;21.10;99.90;;;;;;5156083;28;20038;-88
2023/06/25 07:08:03;;;;;;;3.70;3.33;;;21.20;99.90;;;;;;5163892;28;20030;-87
2023/06/25 07:10:36;;;;;;;4.13;3.17;;;21.10;99.90;;;;;;5166972;28;20034;-88
2023/06/25 07:13:12;;;;;;;5.75;3.60;;;21.20;99.90;;;;;;5149304;28;20049;-86
2023/06/25 07:19:14;;;;;;;4.80;3.97;;;21.50;99.90;;;;;;5179496;28;20059;-87
2023/06/25 07:21:46;;;;;;;3.67;3.05;;;22.00;99.90;;;;;;5145934;28;20026;-84
2023/06/25 07:24:17;;;;;;;4.70;3.08;;;22.00;99.90;;;;;;5159957;28;20037;-83
2023/06/25 07:26:51;;;;;;;3.60;3.30;;;22.10;99.90;;;;;;5143954;28;20026;-84
2023/06/25 07:29:23;;;;;;;5.40;4.15;;;22.00;28.60;;;;;;5143509;28;20027;-83
2023/06/25 07:31:57;;;;;;;4.28;2.95;;;22.00;13.00;;;;;;5144825;28;20026;-82
2023/06/25 07:34:32;;;;;;;5.43;3.70;;;22.40;99.90;;;;;;5146894;28;20030;-86
2023/06/25 07:37:03;;;;;;;5.70;3.30;;;22.50;1.00;;;;;;5148450;28;20044;-85
2023/06/25 07:39:35;;;;;;;4.93;3.53;;;22.10;1.00;;;;;;5167547;28;20026;-84
2023/06/25 07:42:08;;;;;;;4.75;3.33;;;22.10;1.00;;;;;;5158483;28;20056;-84
2023/06/25 07:44:39;;;;;;;5.07;3.53;;;22.30;1.00;;;;;;5163030;28;20053;-84
2023/06/25 07:47:13;;;;;;;4.20;3.58;;;22.50;51.70;;;;;;5143688;28;20030;-84
2023/06/25 07:49:45;;;;;;;4.18;2.75;;;23.00;1.00;;;;;;5143362;28;20036;-84
2023/06/25 07:52:19;;;;;;;5.07;3.75;;;23.20;69.60;;;;;;5160411;28;20342;-84
2023/06/25 07:54:50;;;;;;;4.75;3.53;;;23.20;1.00;;;;;;5144040;28;20339;-85
2023/06/25 07:57:22;;;;;;;5.85;4.15;;;23.20;1.00;;;;;;5143850;28;20030;-83
2023/06/25 07:59:56;;;;;;;5.88;3.75;;;23.30;99.90;;;;;;5144060;28;20030;-86
2023/06/25 08:02:27;;;;;;;4.25;3.85;;;23.00;99.90;;;;;;5144284;28;20106;-83
2023/06/25 08:04:58;;;;;;;3.72;3.28;;;23.10;99.90;;;;;;5131157;28;20045;-85
2023/06/25 08:07:30;;;;;;;4.07;3.00;;;23.40;99.90;;;;;;5128766;28;20041;-85
2023/06/25 08:10:06;;;;;;;6.07;3.58;;;23.70;99.90;;;;;;5128938;28;20031;-87
2023/06/25 08:12:37;;;;;;;4.80;3.35;;;23.60;99.90;;;;;;5129314;28;20355;-85
2023/06/25 08:15:09;;;;;;;4.90;3.22;;;23.60;99.90;;;;;;5128736;28;20039;-85
2023/06/25 08:17:44;;;;;;;3.90;3.22;;;24.00;99.90;;;;;;5128392;28;20045;-86
2023/06/25 08:20:16;;;;;;;4.85;3.60;;;24.00;44.70;;;;;;5128481;28;20206;-85
2023/06/25 08:22:47;;;;;;;4.15;3.03;;;24.10;1.00;;;;;;5124359;29;20031;-85
2023/06/25 08:25:26;;;;;;;5.03;3.53;;;24.20;19.60;;;;;;5125222;29;20033;-85
2023/06/25 08:28:04;;;;;;;4.00;3.05;;;24.60;99.90;;;;;;5122870;29;20033;-85
2023/06/25 08:30:40;;;;;;;3.35;3.05;;;25.20;1.00;;;;;;5138569;29;20061;-85
2023/06/25 08:33:13;;;;;;;4.63;3.10;;;25.50;99.90;;;;;;5108565;29;20046;-84
2023/06/25 08:35:45;;;;;;;4.65;3.03;;;25.50;1.00;;;;;;5123732;29;20038;-84
2023/06/25 08:38:18;;;;;;;4.13;3.53;;;24.90;1.00;;;;;;5123465;29;20035;-85
2023/06/25 08:40:56;;;;;;;5.32;3.40;;;25.40;1.00;;;;;;5124172;29;20031;-85
2023/06/25 08:43:28;;;;;;;4.25;2.92;;;25.10;1.00;;;;;;5107154;29;20216;-86
2023/06/25 08:46:05;;;;;;;3.92;3.10;;;24.90;1.00;;;;;;5123489;29;20328;-85
2023/06/25 08:48:41;;;;;;;7.43;3.50;;;25.10;1.00;;;;;;5139198;29;20037;-85
2023/06/25 08:51:20;;;;;;;3.60;2.50;;;24.90;1.00;;;;;;5123939;29;20057;-87
2023/06/25 08:53:57;;;;;;;4.38;3.22;;;25.20;1.00;;;;;;5122553;29;20329;-86
2023/06/25 08:56:30;;;;;;;4.60;3.55;;;25.40;1.00;;;;;;5122634;29;20039;-86
2023/06/25 08:59:02;;;;;;;3.92;2.85;;;25.50;99.90;;;;;;5121965;28;20202;-86
2023/06/25 09:01:34;;;;;;;5.32;3.58;;;25.30;99.90;;;;;;5122180;28;20041;-84
2023/06/25 09:04:05;;;;;;;3.58;2.90;;;25.70;99.90;;;;;;5106596;29;20035;-85
2023/06/25 09:06:40;;;;;;;4.75;3.65;;;25.90;99.90;;;;;;5112910;29;20044;-85
2023/06/25 09:09:15;;;;;;;5.20;3.53;;;25.30;99.90;;;;;;5139933;29;20027;-85
2023/06/25 09:11:53;;;;;;;4.85;3.15;;;25.50;99.90;;;;;;5147269;29;20038;-86
2023/06/25 09:14:30;;;;;;;5.43;3.45;;;25.50;99.90;;;;;;5149936;28;20039;-85
2023/06/25 09:17:03;;;;;;;6.43;3.30;;;24.70;99.90;;;;;;5143143;28;20027;-84
2023/06/25 09:19:34;;;;;;;4.00;3.42;;;25.20;99.90;;;;;;5109286;29;20035;-87
2023/06/25 09:22:06;;;;;;;4.10;3.13;;;25.30;70.60;;;;;;5140417;29;20031;-85
2023/06/25 09:24:49;;;;;;;7.97;3.35;;;26.60;10.60;;;;;;5123515;29;20027;-84
2023/06/25 09:27:22;;;;;;;4.00;3.13;;;26.70;1.00;;;;;;5140310;29;20037;-85
2023/06/25 09:29:57;;;;;;;4.07;3.00;;;25.30;1.00;;;;;;5140959;29;20232;-85
2023/06/25 09:32:28;;;;;;;4.60;3.22;;;25.30;1.00;;;;;;5138904;29;20035;-85
2023/06/25 09:35:04;;;;;;;4.25;3.10;;;25.20;1.00;;;;;;5123228;29;20309;-85
2023/06/25 09:37:37;;;;;;;6.28;4.20;;;25.80;1.00;;;;;;5139492;29;20041;-85
2023/06/25 09:40:13;;;;;;;4.93;3.55;;;25.00;1.00;;;;;;5138756;29;20079;-84
2023/06/25 09:42:49;;;;;;;4.93;3.30;;;24.90;1.00;;;;;;5122876;29;20224;-85
2023/06/25 09:45:23;;;;;;;3.40;2.83;;;25.10;1.00;;;;;;5138311;29;20027;-84
2023/06/25 09:47:58;;;;;;;4.47;3.53;;;25.00;1.00;;;;;;5122785;29;20031;-86
2023/06/25 09:50:37;;;;;;;4.60;2.92;;;24.90;1.00;;;;;;5142074;29;20053;-84
2023/06/25 09:53:18;;;;;;;6.32;4.05;;;25.40;1.00;;;;;;5141082;29;20202;-86
2023/06/25 09:55:52;;;;;;;4.57;3.30;;;25.80;1.00;;;;;;5138190;29;20042;-84
2023/06/25 09:58:24;;;;;;;4.38;3.65;;;25.80;1.00;;;;;;5138564;29;20041;-85
2023/06/25 10:00:58;;;;;;;4.60;3.38;;;25.90;1.00;;;;;;5137839;29;20031;-86
2023/06/25 10:03:30;;;;;;;4.45;3.67;;;26.30;1.00;;;;;;5138638;29;20039;-87
2023/06/25 10:06:03;;;;;;;4.78;3.92;;;26.50;1.00;;;;;;5157530;28;20557;-84
2023/06/25 10:08:37;;;;;;;8.90;3.78;;;27.30;1.00;;;;;;5145762;28;20308;-84
2023/06/25 10:11:14;;;;;;;5.10;3.17;;;27.20;1.00;;;;;;5145854;28;20358;-85
2023/06/25 10:13:51;;;;;;;5.15;3.42;;;26.60;1.00;;;;;;5161958;28;20034;-85
2023/06/25 10:16:22;;;;;;;5.47;3.83;;;26.40;1.00;;;;;;5160893;28;20160;-85
2023/06/25 10:18:54;;;;;;;6.38;3.53;;;25.50;1.00;;;;;;5161432;28;20034;-85
2023/06/25 10:21:26;;;;;;;3.20;2.90;;;25.40;1.00;;;;;;5161136;28;20032;-85
2023/06/25 10:24:02;;;;;;;5.18;3.78;;;26.20;1.00;;;;;;5161283;28;20026;-84
2023/06/25 10:26:35;;;;;;;5.05;3.58;;;26.10;1.00;;;;;;5160803;28;20026;-86
2023/06/25 10:29:07;;;;;;;4.43;3.80;;;26.00;99.90;;;;;;5160122;28;20194;-85
2023/06/25 10:31:41;;;;;;;4.65;3.67;;;26.30;1.00;;;;;;5160573;28;20030;-85
2023/06/25 10:34:14;;;;;;;4.43;3.58;;;26.60;99.90;;;;;;5161083;28;20030;-84
2023/06/25 10:36:52;;;;;;;5.10;3.83;;;27.30;99.90;;;;;;5160527;28;20353;-85
2023/06/25 10:39:34;;;;;;;6.32;3.30;;;28.20;99.90;;;;;;5160618;28;20034;-85
2023/06/25 10:42:13;;;;;;;4.15;3.42;;;29.00;99.90;;;;;;5160973;28;20223;-84
2023/06/25 10:48:15;;;;;;;5.35;3.55;;;29.70;99.90;;;;;;5178110;28;20026;-85
2023/06/25 10:50:47;;;;;;;4.28;3.30;;;31.00;99.90;;;;;;5161245;28;20034;-85
2023/06/25 10:53:22;;;;;;;4.38;3.60;;;29.80;99.90;;;;;;5162038;28;20220;-85
2023/06/25 10:56:31;;;;;;;4.30;3.55;;;28.40;99.90;;;;;;5145859;28;20038;-85
2023/06/25 10:59:04;;;;;;;4.63;3.30;;;28.20;99.90;;;;;;5145365;28;20042;-86
2023/06/25 11:01:43;;;;;;;4.15;2.97;;;28.90;99.90;;;;;;5161667;28;20041;-86
2023/06/25 11:04:14;;;;;;;4.13;3.10;;;30.20;99.90;;;;;;5150912;28;20022;-85
2023/06/25 11:06:46;;;;;;;4.20;3.20;;;31.80;99.90;;;;;;5147244;28;20033;-86
2023/06/25 11:09:18;;;;;;;4.30;3.20;;;30.20;99.90;;;;;;5145849;28;20324;-85
2023/06/25 11:11:54;;;;;;;4.18;3.03;;;29.00;99.90;;;;;;5160674;28;20236;-86
2023/06/25 11:14:27;;;;;;;3.75;3.08;;;29.50;99.90;;;;;;5144830;28;20030;-85
2023/06/25 11:17:03;;;;;;;4.72;3.15;;;31.80;99.90;;;;;;5165452;28;20030;-86
2023/06/25 11:19:38;;;;;;;4.63;3.65;;;32.10;99.90;;;;;;5146656;28;20040;-85
2023/06/25 11:22:12;;;;;;;3.83;3.10;;;29.70;1.00;;;;;;5160663;28;20031;-85
2023/06/25 11:24:45;;;;;;;5.20;3.90;;;29.20;1.00;;;;;;5160580;28;20030;-85
2023/06/25 11:27:30;;;;;;;4.78;3.92;;;30.10;99.90;;;;;;5160406;28;20033;-85
2023/06/25 11:30:03;;;;;;;4.90;3.05;;;30.80;1.00;;;;;;5160462;28;20036;-87
2023/06/25 11:32:39;;;;;;;5.57;3.70;;;32.00;99.90;;;;;;5163403;28;20029;-86
2023/06/25 11:35:16;;;;;;;3.97;3.40;;;29.70;99.90;;;;;;5169012;28;20038;-88
2023/06/25 11:37:49;;;;;;;5.00;3.47;;;28.10;99.90;;;;;;5170337;28;20034;-87
2023/06/25 11:40:23;;;;;;;5.57;4.05;;;29.10;99.90;;;;;;5163169;28;20030;-85
2023/06/25 11:42:55;;;;;;;4.85;3.92;;;29.70;99.90;;;;;;5165724;28;20030;-88
2023/06/25 11:45:26;;;;;;;5.30;3.67;;;28.20;99.90;;;;;;5165018;28;20026;-86
2023/06/25 11:47:58;;;;;;;5.07;3.50;;;27.70;99.90;;;;;;5164517;28;20220;-85
2023/06/25 11:50:29;;;;;;;5.10;4.03;;;29.00;1.00;;;;;;5164130;28;20045;-85
2023/06/25 11:53:02;;;;;;;5.22;3.55;;;30.40;1.00;;;;;;5163991;28;20034;-84
2023/06/25 11:55:34;;;;;;;4.05;3.25;;;30.70;99.90;;;;;;5164384;28;20030;-86
2023/06/25 11:58:05;;;;;;;5.28;3.95;;;31.30;1.00;;;;;;5164618;28;20030;-85
2023/06/25 12:00:39;;;;;;;5.85;3.97;;;31.40;99.90;;;;;;5164932;28;20048;-86
2023/06/25 12:03:13;;;;;;;6.05;4.15;;;32.10;99.90;;;;;;5163491;28;20336;-86
2023/06/25 12:05:47;;;;;;;5.07;3.78;;;30.90;99.90;;;;;;5153857;28;20050;-84
2023/06/25 12:08:18;;;;;;;5.07;3.55;;;28.40;99.90;;;;;;5147274;28;20025;-84
2023/06/25 12:10:50;;;;;;;6.05;3.97;;;27.00;84.30;;;;;;5163756;28;20035;-85
2023/06/25 12:13:21;;;;;;;5.68;3.55;;;27.30;99.90;;;;;;5163447;28;20030;-85
2023/06/25 12:15:56;;;;;;;5.07;3.08;;;29.30;99.90;;;;;;5163153;28;20034;-87
2023/06/25 12:18:29;;;;;;;4.40;3.22;;;31.80;99.90;;;;;;5147157;28;20038;-87
2023/06/25 12:21:00;;;;;;;4.63;3.47;;;32.60;99.90;;;;;;5163482;28;20044;-85
2023/06/25 12:23:31;;;;;;;6.35;3.90;;;31.90;99.90;;;;;;5163213;28;20030;-87
2023/06/25 12:26:03;;;;;;;4.85;3.60;;;31.90;99.90;;;;;;5163189;28;20026;-87
2023/06/25 12:28:34;;;;;;;7.95;4.28;;;32.00;99.90;;;;;;5163341;28;20026;-84
2023/06/25 12:31:08;;;;;;;4.35;3.17;;;30.50;99.90;;;;;;5165172;28;20034;-86
2023/06/25 12:33:42;;;;;;;4.82;3.70;;;30.60;99.90;;;;;;5148964;28;20061;-86
2023/06/25 12:36:16;;;;;;;4.30;3.50;;;31.10;99.90;;;;;;5162995;28;20030;-86
2023/06/25 12:38:50;;;;;;;5.50;3.40;;;31.50;99.90;;;;;;5163556;28;20034;-87
2023/06/25 12:41:25;;;;;;;4.78;3.47;;;29.10;99.90;;;;;;5163436;28;20033;-86
2023/06/25 12:44:01;;;;;;;4.82;3.22;;;29.10;99.90;;;;;;5164820;28;20034;-87
2023/06/25 12:46:44;;;;;;;5.03;3.42;;;30.90;99.90;;;;;;5164137;28;20030;-87
2023/06/25 12:49:19;;;;;;;3.97;3.15;;;31.80;99.90;;;;;;5163895;28;20030;-87
2023/06/25 12:51:51;;;;;;;3.95;3.13;;;31.80;99.90;;;;;;5162894;28;20041;-86
2023/06/25 12:54:22;;;;;;;4.47;3.65;;;31.80;99.90;;;;;;5164448;28;20040;-85
2023/06/25 12:56:56;;;;;;;4.25;3.22;;;31.70;99.90;;;;;;5162855;28;20041;-86
2023/06/25 12:59:28;;;;;;;3.97;3.42;;;32.70;99.90;;;;;;5163598;28;20045;-86
2023/06/25 13:02:00;;;;;;;4.07;3.58;;;32.90;99.90;;;;;;5146805;28;20038;-86
2023/06/25 13:04:32;;;;;;;3.85;3.22;;;33.10;99.90;;;;;;5137015;28;20050;-85
2023/06/25 13:07:09;;;;;;;5.97;3.10;;;32.50;99.90;;;;;;5146440;28;20032;-84
2023/06/25 13:09:40;;;;;;;4.40;3.35;;;32.00;99.90;;;;;;5162224;28;20030;-85
2023/06/25 13:12:12;;;;;;;4.05;3.65;;;31.40;99.90;;;;;;5145941;28;20031;-84
2023/06/25 13:14:43;;;;;;;4.53;3.38;;;31.50;99.90;;;;;;5161395;28;20037;-85
2023/06/25 13:17:18;;;;;;;4.20;3.58;;;31.70;99.90;;;;;;5161743;28;20109;-86
2023/06/25 13:19:50;;;;;;;4.93;3.60;;;32.60;99.90;;;;;;5163079;28;20034;-85
2023/06/25 13:22:21;;;;;;;4.93;3.67;;;31.20;99.90;;;;;;5162554;28;20193;-85
2023/06/25 13:24:52;;;;;;;4.60;3.95;;;30.20;99.90;;;;;;5162333;28;20030;-86
2023/06/25 13:27:23;;;;;;;4.28;3.13;;;31.10;99.90;;;;;;5162680;28;20037;-85
2023/06/25 13:29:55;;;;;;;5.18;3.40;;;32.40;99.90;;;;;;5164979;28;20032;-85
2023/06/25 13:32:26;;;;;;;4.18;3.45;;;31.10;99.90;;;;;;5163919;28;20026;-86
2023/06/25 13:34:58;;;;;;;4.38;3.05;;;30.70;99.90;;;;;;5164278;28;20041;-86
2023/06/25 13:37:29;;;;;;;5.88;2.97;;;31.20;99.90;;;;;;5163071;28;20034;-84
2023/06/25 13:40:01;;;;;;;5.55;2.80;;;31.60;99.90;;;;;;5162731;28;20034;-87
2023/06/25 13:42:32;;;;;;;3.88;3.08;;;31.50;99.90;;;;;;5162704;28;20325;-86
2023/06/25 13:45:04;;;;;;;4.63;3.25;;;32.50;99.90;;;;;;5166026;28;20030;-88
2023/06/25 13:47:38;;;;;;;4.03;3.15;;;34.00;1.00;;;;;;5174246;28;20033;-84
2023/06/25 13:50:09;;;;;;;3.92;3.53;;;34.10;1.00;;;;;;5167391;28;20037;-86
2023/06/25 13:52:41;;;;;;;3.25;2.78;;;33.00;1.00;;;;;;5164235;28;20041;-84
2023/06/25 13:58:41;;;;;;;4.72;3.42;;;33.60;1.00;;;;;;5180339;28;20037;-86
2023/06/25 14:01:15;;;;;;;7.28;3.40;;;33.40;1.00;;;;;;5162728;28;20036;-85
2023/06/25 14:03:46;;;;;;;4.25;2.92;;;33.70;1.00;;;;;;5161795;28;20044;-86
2023/06/25 14:06:18;;;;;;;4.05;2.75;;;33.40;1.00;;;;;;5137463;28;20352;-86